Time;durP1;ratioP1;P1;durP2;ratioP2;P2;SDS_P1;SDS_P2;PMS_P1;PMS_P2;Temp;Humidity;BMP_temperature;BMP_pressure;BME280_temperature;BME280_humidity;BME280_pressure;Samples;Min_cycle;Max_cycle;Signal;HPM_P1;HPM_P2
2023/07/05 00:01:42;;;;;;;;;;;22.10;49.20;;;;;;5028112;28;19924;-55
2023/07/05 00:04:10;;;;;;;;;;;22.10;49.20;;;;;;5031116;28;19947;-56
2023/07/05 00:06:36;;;;;;;;;;;22.00;49.10;;;;;;5028889;28;19944;-57
2023/07/05 00:09:03;;;;;;;;;;;22.10;49.20;;;;;;5031298;28;19924;-57
2023/07/05 00:11:30;;;;;;;;;;;22.00;49.10;;;;;;5029130;28;19921;-57
2023/07/05 00:13:58;;;;;;;;;;;22.00;49.00;;;;;;5028272;28;20433;-56
2023/07/05 00:16:25;;;;;;;;;;;22.00;49.00;;;;;;5028561;28;19921;-57
2023/07/05 00:18:52;;;;;;;;;;;22.10;49.10;;;;;;5030964;28;19920;-57
2023/07/05 00:21:18;;;;;;;;;;;22.00;49.00;;;;;;5035240;28;19928;-57
2023/07/05 00:23:46;;;;;;;;;;;22.00;49.00;;;;;;5030564;28;19928;-58
2023/07/05 00:26:13;;;;;;;;;;;22.00;49.00;;;;;;5036862;28;19925;-58
2023/07/05 00:28:39;;;;;;;;;;;22.00;49.00;;;;;;5038457;28;19921;-58
2023/07/05 00:31:09;;;;;;;;;;;22.00;49.00;;;;;;5053979;28;19964;-58
2023/07/05 00:33:36;;;;;;;;;;;22.00;49.00;;;;;;5034356;28;20091;-54
2023/07/05 00:36:03;;;;;;;;;;;22.00;49.00;;;;;;5050304;28;19925;-56
2023/07/05 00:38:30;;;;;;;;;;;22.00;49.00;;;;;;5032939;28;19971;-57
2023/07/05 00:40:57;;;;;;;;;;;22.00;49.00;;;;;;5033941;28;19932;-56
2023/07/05 00:43:23;;;;;;;;;;;22.00;49.00;;;;;;5032849;28;19929;-57
2023/07/05 00:45:51;;;;;;;;;;;22.00;49.00;;;;;;5032799;28;19999;-58
2023/07/05 00:48:20;;;;;;;;;;;22.00;49.00;;;;;;5030002;28;19967;-57
2023/07/05 00:50:49;;;;;;;;;;;22.00;49.00;;;;;;5031442;28;19974;-57
2023/07/05 00:53:15;;;;;;;;;;;22.00;49.00;;;;;;5035906;28;19925;-57
2023/07/05 00:55:42;;;;;;;;;;;22.00;49.00;;;;;;5033712;28;19921;-57
2023/07/05 00:58:09;;;;;;;;;;;22.00;49.00;;;;;;5035026;28;19928;-58
2023/07/05 01:00:36;;;;;;;;;;;22.00;49.00;;;;;;5036205;28;19921;-57
2023/07/05 01:03:04;;;;;;;;;;;22.00;49.00;;;;;;5028351;28;19955;-57
2023/07/05 01:05:32;;;;;;;;;;;22.00;49.00;;;;;;5034874;28;19971;-57
2023/07/05 01:07:59;;;;;;;;;;;22.00;49.00;;;;;;5034825;28;19925;-56
2023/07/05 01:10:26;;;;;;;;;;;22.00;49.00;;;;;;5035181;28;19976;-58
2023/07/05 01:12:54;;;;;;;;;;;22.00;49.00;;;;;;5037387;28;19925;-55
2023/07/05 01:15:22;;;;;;;;;;;22.00;49.00;;;;;;5035010;28;19928;-56
2023/07/05 01:17:51;;;;;;;;;;;22.00;49.00;;;;;;5033928;28;19933;-57
2023/07/05 01:20:21;;;;;;;;;;;22.00;49.00;;;;;;5034596;28;19940;-58
2023/07/05 01:22:58;;;;;;;;;;;22.00;49.00;;;;;;5034089;28;20015;-57
2023/07/05 01:25:30;;;;;;;;;;;22.00;49.00;;;;;;5032729;28;19925;-55
2023/07/05 01:28:03;;;;;;;;;;;21.90;49.00;;;;;;5051055;28;19974;-56
2023/07/05 01:30:39;;;;;;;;;;;22.00;49.00;;;;;;5033805;28;19921;-57
2023/07/05 01:33:08;;;;;;;;;;;22.00;49.10;;;;;;5038225;28;19932;-57
2023/07/05 01:35:36;;;;;;;;;;;22.00;49.10;;;;;;5034399;28;19971;-57
2023/07/05 01:38:04;;;;;;;;;;;22.00;49.10;;;;;;5048898;28;20428;-57
2023/07/05 01:40:51;;;;;;;;;;;22.00;49.10;;;;;;5034263;28;19921;-56
2023/07/05 01:43:18;;;;;;;;;;;22.00;49.10;;;;;;5032968;28;19933;-57
2023/07/05 01:45:46;;;;;;;;;;;22.00;49.10;;;;;;5032100;28;20315;-57
2023/07/05 01:48:16;;;;;;;;;;;21.90;49.00;;;;;;5030781;28;19920;-55
2023/07/05 01:50:44;;;;;;;;;;;21.90;49.00;;;;;;5049438;28;19925;-56
2023/07/05 01:53:12;;;;;;;;;;;21.90;49.00;;;;;;5028201;28;19928;-56
2023/07/05 01:55:40;;;;;;;;;;;21.90;49.00;;;;;;5035844;28;20413;-58
2023/07/05 01:58:09;;;;;;;;;;;21.90;49.00;;;;;;5030903;28;19924;-57
2023/07/05 02:00:36;;;;;;;;;;;21.90;49.00;;;;;;5033522;28;19921;-57
2023/07/05 02:03:04;;;;;;;;;;;21.90;49.00;;;;;;5028104;28;19920;-55
2023/07/05 02:05:33;;;;;;;;;;;21.90;48.90;;;;;;5031575;28;19921;-56
2023/07/05 02:08:00;;;;;;;;;;;21.90;49.00;;;;;;5031293;28;19925;-57
2023/07/05 02:10:26;;;;;;;;;;;21.90;48.90;;;;;;5031246;28;20395;-56
2023/07/05 02:12:53;;;;;;;;;;;21.90;48.90;;;;;;5030458;28;20368;-56
2023/07/05 02:15:20;;;;;;;;;;;21.90;48.90;;;;;;5032993;28;19921;-57
2023/07/05 02:17:47;;;;;;;;;;;21.90;49.00;;;;;;5030093;28;19932;-56
2023/07/05 02:20:14;;;;;;;;;;;21.90;48.90;;;;;;5031907;28;19986;-57
2023/07/05 02:22:42;;;;;;;;;;;21.90;48.90;;;;;;5029656;28;20247;-57
2023/07/05 02:25:09;;;;;;;;;;;21.90;48.90;;;;;;5032510;28;19921;-57
2023/07/05 02:27:37;;;;;;;;;;;21.90;48.90;;;;;;5030395;28;19931;-57
2023/07/05 02:30:05;;;;;;;;;;;21.90;48.90;;;;;;5033403;28;19928;-56
2023/07/05 02:32:32;;;;;;;;;;;21.90;49.50;;;;;;5047432;28;19932;-58
2023/07/05 02:35:00;;;;;;;;;;;21.90;48.90;;;;;;5031485;28;19925;-57
2023/07/05 02:37:26;;;;;;;;;;;21.90;49.00;;;;;;5029019;28;20050;-56
2023/07/05 02:39:54;;;;;;;;;;;21.90;48.90;;;;;;5046314;28;19929;-57
2023/07/05 02:42:21;;;;;;;;;;;21.90;49.00;;;;;;5026714;28;19951;-58
2023/07/05 02:44:48;;;;;;;;;;;21.90;48.90;;;;;;5048728;28;19920;-58
2023/07/05 02:47:15;;;;;;;;;;;21.90;48.90;;;;;;5031414;28;19986;-57
2023/07/05 02:49:42;;;;;;;;;;;21.90;48.90;;;;;;5031963;28;20020;-54
2023/07/05 02:52:08;;;;;;;;;;;21.90;49.00;;;;;;5029279;28;19927;-56
2023/07/05 02:54:35;;;;;;;;;;;21.90;48.90;;;;;;5050365;28;19920;-58
2023/07/05 02:57:03;;;;;;;;;;;21.80;48.80;;;;;;5033052;28;19920;-51
2023/07/05 02:59:31;;;;;;;;;;;21.90;48.90;;;;;;5030392;28;19974;-55
2023/07/05 03:01:57;;;;;;;;;;;21.90;49.00;;;;;;5030524;28;19929;-56
2023/07/05 03:04:24;;;;;;;;;;;21.90;49.00;;;;;;5048553;28;19928;-55
2023/07/05 03:06:51;;;;;;;;;;;21.80;48.90;;;;;;5032921;28;19974;-57
2023/07/05 03:09:18;;;;;;;;;;;21.80;48.90;;;;;;5018807;28;19946;-57
2023/07/05 03:11:45;;;;;;;;;;;21.90;49.00;;;;;;5031949;28;19929;-57
2023/07/05 03:14:13;;;;;;;;;;;21.80;48.90;;;;;;5027327;28;19921;-58
2023/07/05 03:16:39;;;;;;;;;;;21.80;48.90;;;;;;5029997;28;19932;-57
2023/07/05 03:19:06;;;;;;;;;;;21.80;49.00;;;;;;5031619;28;19944;-57
2023/07/05 03:21:33;;;;;;;;;;;21.80;49.00;;;;;;5031627;28;20294;-57
2023/07/05 03:24:00;;;;;;;;;;;21.80;49.10;;;;;;5046951;28;20125;-56
2023/07/05 03:26:27;;;;;;;;;;;21.80;49.00;;;;;;5032449;28;19920;-57
2023/07/05 03:28:54;;;;;;;;;;;21.80;49.10;;;;;;5050018;28;19927;-58
2023/07/05 03:31:22;;;;;;;;;;;21.80;49.10;;;;;;5030797;28;19921;-57
2023/07/05 03:33:49;;;;;;;;;;;21.80;49.10;;;;;;5031018;28;19932;-57
2023/07/05 03:36:16;;;;;;;;;;;21.80;49.10;;;;;;5042928;28;19925;-57
2023/07/05 03:38:43;;;;;;;;;;;21.80;49.20;;;;;;5032029;28;19967;-57
2023/07/05 03:41:11;;;;;;;;;;;21.80;49.20;;;;;;5027685;28;19920;-59
2023/07/05 03:43:38;;;;;;;;;;;21.80;49.10;;;;;;5031807;28;19921;-57
2023/07/05 03:46:06;;;;;;;;;;;21.80;49.20;;;;;;5030972;28;19924;-58
2023/07/05 03:48:34;;;;;;;;;;;21.80;49.20;;;;;;5031527;28;19921;-58
2023/07/05 03:51:01;;;;;;;;;;;21.80;49.20;;;;;;5031182;28;19967;-57
2023/07/05 03:53:28;;;;;;;;;;;21.80;49.20;;;;;;5031126;28;19975;-54
2023/07/05 03:55:55;;;;;;;;;;;21.80;49.30;;;;;;5025655;28;19925;-58
2023/07/05 03:58:21;;;;;;;;;;;21.80;49.30;;;;;;5031890;28;19925;-57
2023/07/05 04:00:48;;;;;;;;;;;21.80;49.30;;;;;;5049859;28;19928;-57
2023/07/05 04:03:15;;;;;;;;;;;21.80;49.30;;;;;;5030855;28;20462;-57
2023/07/05 04:05:43;;;;;;;;;;;21.80;49.30;;;;;;5032022;28;19920;-58
2023/07/05 04:08:10;;;;;;;;;;;21.80;49.40;;;;;;5030104;28;19933;-58
2023/07/05 04:10:36;;;;;;;;;;;21.80;49.40;;;;;;5031986;28;19924;-57
2023/07/05 04:13:03;;;;;;;;;;;21.80;49.50;;;;;;5029825;28;19932;-57
2023/07/05 04:15:30;;;;;;;;;;;21.80;49.50;;;;;;5042321;28;20018;-57
2023/07/05 04:17:57;;;;;;;;;;;21.80;49.50;;;;;;5039294;28;19921;-58
2023/07/05 04:20:24;;;;;;;;;;;21.80;49.60;;;;;;5031323;28;19936;-56
2023/07/05 04:22:52;;;;;;;;;;;21.80;49.60;;;;;;5029566;28;20456;-58
2023/07/05 04:25:19;;;;;;;;;;;21.80;49.70;;;;;;5032642;28;19955;-58
2023/07/05 04:27:46;;;;;;;;;;;21.80;49.70;;;;;;5053417;28;19995;-57
2023/07/05 04:30:13;;;;;;;;;;;21.80;49.80;;;;;;5037091;28;19925;-57
2023/07/05 04:32:40;;;;;;;;;;;21.80;49.80;;;;;;5034931;28;19978;-58
2023/07/05 04:35:07;;;;;;;;;;;21.80;49.90;;;;;;5034636;28;19933;-57
2023/07/05 04:37:34;;;;;;;;;;;21.80;49.80;;;;;;5033828;28;19929;-57
2023/07/05 04:40:03;;;;;;;;;;;21.80;49.90;;;;;;5046734;28;19924;-57
2023/07/05 04:42:30;;;;;;;;;;;21.80;49.90;;;;;;5031445;28;20041;-57
2023/07/05 04:44:56;;;;;;;;;;;21.80;49.90;;;;;;5037796;28;19921;-57
2023/07/05 04:47:23;;;;;;;;;;;21.80;49.90;;;;;;5033949;28;19924;-58
2023/07/05 04:49:50;;;;;;;;;;;21.80;50.00;;;;;;5049272;28;19921;-58
2023/07/05 04:52:17;;;;;;;;;;;21.80;50.00;;;;;;5033423;28;19921;-57
2023/07/05 04:54:43;;;;;;;;;;;21.80;50.00;;;;;;5051030;28;19956;-57
2023/07/05 04:57:11;;;;;;;;;;;21.80;50.00;;;;;;5033634;28;19925;-58
2023/07/05 04:59:43;;;;;;;;;;;21.80;50.00;;;;;;5051234;28;19921;-58
2023/07/05 05:02:09;;;;;;;;;;;21.90;50.20;;;;;;5032572;28;19920;-56
2023/07/05 05:04:37;;;;;;;;;;;21.90;50.30;;;;;;5047883;28;19928;-58
2023/07/05 05:07:03;;;;;;;;;;;21.90;50.30;;;;;;5035073;28;19921;-57
2023/07/05 05:09:30;;;;;;;;;;;21.80;50.40;;;;;;5034893;28;20153;-56
2023/07/05 05:11:57;;;;;;;;;;;21.90;50.30;;;;;;5033199;28;19925;-58
2023/07/05 05:14:25;;;;;;;;;;;21.80;50.20;;;;;;5029506;28;19927;-55
2023/07/05 05:16:52;;;;;;;;;;;21.90;50.30;;;;;;5031103;28;19940;-58
2023/07/05 05:19:19;;;;;;;;;;;21.90;50.50;;;;;;5034072;28;19932;-57
2023/07/05 05:21:46;;;;;;;;;;;21.80;50.30;;;;;;5035295;28;19924;-58
2023/07/05 05:24:13;;;;;;;;;;;21.90;50.40;;;;;;5050005;28;19939;-57
2023/07/05 05:26:39;;;;;;;;;;;21.90;50.50;;;;;;5033952;28;19978;-57
2023/07/05 05:29:06;;;;;;;;;;;21.80;50.50;;;;;;5034699;28;19974;-58
2023/07/05 05:31:34;;;;;;;;;;;21.80;50.50;;;;;;5032936;28;19937;-57
2023/07/05 05:34:02;;;;;;;;;;;21.90;50.50;;;;;;5051295;28;19928;-57
2023/07/05 05:36:29;;;;;;;;;;;21.80;50.50;;;;;;5033440;28;19947;-57
2023/07/05 05:38:55;;;;;;;;;;;21.80;50.60;;;;;;5032526;28;19924;-58
2023/07/05 05:41:22;;;;;;;;;;;21.80;50.60;;;;;;5033877;28;19948;-56
2023/07/05 05:43:50;;;;;;;;;;;21.80;50.60;;;;;;5032620;28;19921;-59
2023/07/05 05:46:16;;;;;;;;;;;21.80;50.60;;;;;;5033421;28;19932;-58
2023/07/05 05:48:45;;;;;;;;;;;21.80;50.70;;;;;;5029872;28;19921;-58
2023/07/05 05:51:11;;;;;;;;;;;21.80;50.70;;;;;;5056030;28;19928;-57
2023/07/05 05:53:40;;;;;;;;;;;21.80;50.70;;;;;;5044697;28;19927;-58
2023/07/05 05:56:07;;;;;;;;;;;21.80;50.80;;;;;;5037358;28;19920;-54
2023/07/05 05:58:34;;;;;;;;;;;21.80;50.70;;;;;;5035416;28;19921;-58
2023/07/05 06:01:01;;;;;;;;;;;21.80;50.80;;;;;;5033806;28;19990;-57
2023/07/05 06:03:28;;;;;;;;;;;21.80;50.80;;;;;;5031223;28;19925;-58
2023/07/05 06:05:56;;;;;;;;;;;21.80;50.80;;;;;;5033701;28;19928;-57
2023/07/05 06:08:23;;;;;;;;;;;21.90;50.90;;;;;;5036782;28;19924;-58
2023/07/05 06:10:54;;;;;;;;;;;21.80;50.80;;;;;;5034990;28;19932;-57
2023/07/05 06:13:21;;;;;;;;;;;21.90;50.90;;;;;;5040168;28;19966;-56
2023/07/05 06:15:53;;;;;;;;;;;21.80;50.80;;;;;;5040821;28;19979;-59
2023/07/05 06:18:20;;;;;;;;;;;21.90;50.90;;;;;;5038565;28;20359;-57
2023/07/05 06:20:47;;;;;;;;;;;21.90;50.90;;;;;;5034097;28;19924;-59
2023/07/05 06:23:15;;;;;;;;;;;21.90;51.00;;;;;;5040647;28;19950;-58
2023/07/05 06:25:41;;;;;;;;;;;21.90;51.00;;;;;;5040403;28;19932;-57
2023/07/05 06:28:08;;;;;;;;;;;21.90;51.00;;;;;;5040088;28;19928;-57
2023/07/05 06:30:35;;;;;;;;;;;21.90;51.00;;;;;;5035468;28;19925;-58
2023/07/05 06:33:02;;;;;;;;;;;21.90;51.10;;;;;;5039767;28;19932;-58
2023/07/05 06:35:29;;;;;;;;;;;21.90;51.10;;;;;;5031159;28;20414;-58
2023/07/05 06:37:56;;;;;;;;;;;21.90;51.10;;;;;;5038122;28;19921;-58
2023/07/05 06:40:24;;;;;;;;;;;21.90;51.20;;;;;;5042711;28;19927;-57
2023/07/05 06:42:51;;;;;;;;;;;21.90;51.20;;;;;;5038051;28;19928;-57
2023/07/05 06:45:17;;;;;;;;;;;21.90;51.20;;;;;;5040802;28;19955;-57
2023/07/05 06:47:45;;;;;;;;;;;21.90;51.20;;;;;;5055299;28;19940;-57
2023/07/05 06:50:12;;;;;;;;;;;21.90;51.30;;;;;;5035607;28;19966;-57
2023/07/05 06:52:39;;;;;;;;;;;21.90;51.30;;;;;;5034813;28;19925;-56
2023/07/05 06:55:06;;;;;;;;;;;21.90;51.30;;;;;;5038800;28;20011;-55
2023/07/05 06:57:35;;;;;;;;;;;22.00;51.40;;;;;;5027590;28;19927;-56
2023/07/05 07:00:01;;;;;;;;;;;22.00;51.40;;;;;;5048270;28;19925;-57
2023/07/05 07:02:28;;;;;;;;;;;22.00;51.40;;;;;;5033727;28;19978;-55
2023/07/05 07:04:55;;;;;;;;;;;22.00;51.50;;;;;;5037345;28;19921;-57
2023/07/05 07:07:21;;;;;;;;;;;22.00;51.50;;;;;;5039480;28;19921;-59
2023/07/05 07:09:49;;;;;;;;;;;22.00;51.50;;;;;;5032855;28;19929;-57
2023/07/05 07:12:15;;;;;;;;;;;22.00;51.50;;;;;;5054547;28;19927;-57
2023/07/05 07:14:43;;;;;;;;;;;22.00;51.50;;;;;;5037127;28;19979;-57
2023/07/05 07:17:10;;;;;;;;;;;22.00;51.60;;;;;;5029313;28;20283;-56
2023/07/05 07:19:37;;;;;;;;;;;22.00;51.60;;;;;;5038128;28;19939;-56
2023/07/05 07:22:05;;;;;;;;;;;22.00;51.60;;;;;;5036511;28;19921;-55
2023/07/05 07:24:32;;;;;;;;;;;22.00;51.60;;;;;;5054164;28;19966;-54
2023/07/05 07:26:59;;;;;;;;;;;22.00;51.60;;;;;;5051965;28;19968;-56
2023/07/05 07:29:26;;;;;;;;;;;22.00;51.60;;;;;;5053371;28;19933;-55
2023/07/05 07:31:54;;;;;;;;;;;22.00;51.60;;;;;;5035633;28;19974;-56
2023/07/05 07:34:21;;;;;;;;;;;22.00;51.60;;;;;;5032843;28;19924;-57
2023/07/05 07:36:48;;;;;;;;;;;22.00;51.70;;;;;;5054977;28;20063;-57
2023/07/05 07:39:14;;;;;;;;;;;22.00;51.70;;;;;;5033405;28;19920;-55
2023/07/05 07:41:41;;;;;;;;;;;22.00;51.70;;;;;;5054279;28;19924;-56
2023/07/05 07:44:09;;;;;;;;;;;22.00;51.80;;;;;;5048839;28;20015;-57
2023/07/05 07:46:36;;;;;;;;;;;22.00;51.80;;;;;;5030149;28;20382;-56
2023/07/05 07:49:04;;;;;;;;;;;22.00;51.90;;;;;;5038033;28;19986;-57
2023/07/05 07:51:32;;;;;;;;;;;22.00;51.90;;;;;;5054263;28;19932;-57
2023/07/05 07:53:58;;;;;;;;;;;22.00;51.90;;;;;;5036167;28;19925;-55
2023/07/05 07:56:25;;;;;;;;;;;22.00;51.90;;;;;;5033481;28;19944;-56
2023/07/05 07:58:52;;;;;;;;;;;22.00;52.00;;;;;;5030442;28;19925;-56
2023/07/05 08:01:20;;;;;;;;;;;22.00;52.00;;;;;;5040656;28;19928;-56
2023/07/05 08:03:46;;;;;;;;;;;22.00;52.10;;;;;;5051699;28;19920;-56
2023/07/05 08:06:15;;;;;;;;;;;22.00;52.10;;;;;;5041799;28;19952;-56
2023/07/05 08:08:41;;;;;;;;;;;22.10;52.20;;;;;;5038066;28;19932;-57
2023/07/05 08:11:08;;;;;;;;;;;22.00;52.20;;;;;;5039726;28;19925;-56
2023/07/05 08:13:35;;;;;;;;;;;22.00;52.20;;;;;;5039389;28;19920;-56
2023/07/05 08:16:02;;;;;;;;;;;22.10;52.20;;;;;;5043851;28;19924;-56
2023/07/05 08:18:29;;;;;;;;;;;22.10;52.20;;;;;;5040146;28;19932;-57
2023/07/05 08:20:56;;;;;;;;;;;22.10;52.20;;;;;;5039624;28;19920;-58
2023/07/05 08:23:26;;;;;;;;;;;22.10;52.20;;;;;;5057402;28;20944;-53
2023/07/05 08:25:55;;;;;;;;;;;22.10;52.10;;;;;;5044052;28;19920;-56
2023/07/05 08:28:22;;;;;;;;;;;22.10;52.10;;;;;;5039778;28;20018;-57
2023/07/05 08:30:52;;;;;;;;;;;22.10;52.10;;;;;;5043209;28;19974;-56
2023/07/05 08:33:21;;;;;;;;;;;22.10;52.00;;;;;;5035436;28;19932;-57
2023/07/05 08:35:48;;;;;;;;;;;22.10;52.00;;;;;;5040690;28;19935;-57
2023/07/05 08:38:18;;;;;;;;;;;22.20;52.00;;;;;;5041293;28;19946;-57
2023/07/05 08:40:48;;;;;;;;;;;22.20;52.10;;;;;;5041677;28;19968;-56
2023/07/05 08:43:20;;;;;;;;;;;22.10;52.00;;;;;;5040569;28;19936;-56
2023/07/05 08:45:47;;;;;;;;;;;22.20;52.10;;;;;;5044608;28;19924;-56
2023/07/05 08:48:14;;;;;;;;;;;22.20;52.10;;;;;;5041896;28;19921;-57
2023/07/05 08:50:41;;;;;;;;;;;22.20;52.20;;;;;;5039575;28;19928;-56
2023/07/05 08:53:10;;;;;;;;;;;22.20;52.20;;;;;;5041390;28;19983;-56
2023/07/05 08:55:42;;;;;;;;;;;22.20;52.20;;;;;;5059960;28;19927;-57
2023/07/05 08:58:10;;;;;;;;;;;22.20;52.30;;;;;;5041512;28;20363;-57
2023/07/05 09:00:39;;;;;;;;;;;22.30;52.40;;;;;;5047121;28;19920;-56
2023/07/05 09:03:08;;;;;;;;;;;22.30;52.50;;;;;;5057932;28;19978;-57
2023/07/05 09:05:38;;;;;;;;;;;22.30;52.50;;;;;;5036374;28;19960;-55
2023/07/05 09:08:08;;;;;;;;;;;22.20;52.50;;;;;;5061349;28;19920;-56
2023/07/05 09:10:37;;;;;;;;;;;22.30;52.60;;;;;;5054390;28;19921;-57
2023/07/05 09:13:06;;;;;;;;;;;22.30;52.70;;;;;;5063122;28;19924;-56
2023/07/05 09:15:36;;;;;;;;;;;22.30;52.70;;;;;;5039371;28;19925;-54
2023/07/05 09:18:03;;;;;;;;;;;22.30;52.60;;;;;;5036721;28;20276;-56
2023/07/05 09:20:38;;;;;;;;;;;22.30;52.70;;;;;;5040486;28;19924;-57
2023/07/05 09:23:05;;;;;;;;;;;22.30;53.00;;;;;;5044276;28;20263;-57
2023/07/05 09:25:32;;;;;;;;;;;22.30;52.70;;;;;;5039166;28;19924;-56
2023/07/05 09:28:02;;;;;;;;;;;22.30;52.80;;;;;;5042445;28;19979;-56
2023/07/05 09:30:29;;;;;;;;;;;22.30;52.80;;;;;;5055224;28;19978;-56
2023/07/05 09:33:00;;;;;;;;;;;22.30;52.70;;;;;;5039022;28;19921;-57
2023/07/05 09:35:28;;;;;;;;;;;22.30;52.70;;;;;;5037756;28;20275;-54
2023/07/05 09:37:56;;;;;;;;;;;22.30;52.60;;;;;;5040400;28;20314;-57
2023/07/05 09:40:24;;;;;;;;;;;22.30;52.50;;;;;;5060915;28;19971;-55
2023/07/05 09:42:52;;;;;;;;;;;22.30;52.50;;;;;;5054070;28;19937;-57
2023/07/05 09:45:18;;;;;;;;;;;22.30;52.60;;;;;;5034025;28;19924;-55
2023/07/05 09:47:46;;;;;;;;;;;22.30;52.40;;;;;;5055867;28;20321;-56
2023/07/05 09:50:16;;;;;;;;;;;22.30;52.20;;;;;;5053411;28;19967;-56
2023/07/05 09:52:43;;;;;;;;;;;22.30;51.90;;;;;;5040263;28;19932;-54
2023/07/05 09:55:12;;;;;;;;;;;22.30;51.70;;;;;;5039938;28;19932;-57
2023/07/05 09:57:38;;;;;;;;;;;22.30;51.60;;;;;;5041596;28;19921;-56
2023/07/05 10:00:07;;;;;;;;;;;22.30;51.20;;;;;;5040909;28;19979;-56
2023/07/05 10:02:34;;;;;;;;;;;22.30;51.10;;;;;;5038687;28;20022;-56
2023/07/05 10:05:13;;;;;;;;;;;22.20;50.80;;;;;;5058317;28;19925;-56
2023/07/05 10:07:51;;;;;;;;;;;22.20;50.60;;;;;;5044412;28;19924;-53
2023/07/05 10:10:19;;;;;;;;;;;22.20;51.00;;;;;;5043796;28;19978;-56
2023/07/05 10:12:47;;;;;;;;;;;22.20;50.30;;;;;;5059927;28;19940;-57
2023/07/05 10:15:19;;;;;;;;;;;22.20;50.20;;;;;;5051603;28;19921;-55
2023/07/05 10:17:46;;;;;;;;;;;22.20;50.10;;;;;;5042901;28;20033;-55
2023/07/05 10:20:20;;;;;;;;;;;22.20;50.10;;;;;;5037309;28;19933;-56
2023/07/05 10:22:48;;;;;;;;;;;22.20;50.00;;;;;;5041763;28;19967;-57
2023/07/05 10:25:17;;;;;;;;;;;22.20;49.90;;;;;;5043585;28;21325;-56
2023/07/05 10:27:44;;;;;;;;;;;22.20;49.80;;;;;;5039523;28;19921;-55
2023/07/05 10:30:14;;;;;;;;;;;22.20;49.80;;;;;;5041623;28;20023;-56
2023/07/05 10:32:41;;;;;;;;;;;22.20;49.80;;;;;;5043242;28;19970;-58
2023/07/05 10:35:10;;;;;;;;;;;22.20;49.70;;;;;;5049282;28;19940;-54
2023/07/05 10:37:38;;;;;;;;;;;22.20;49.80;;;;;;5060666;28;19924;-54
2023/07/05 10:40:09;;;;;;;;;;;22.20;49.60;;;;;;5040905;28;19930;-56
2023/07/05 10:42:36;;;;;;;;;;;22.20;49.40;;;;;;5037756;28;19920;-54
2023/07/05 10:45:04;;;;;;;;;;;22.20;49.30;;;;;;5039708;28;19924;-56
2023/07/05 10:47:31;;;;;;;;;;;22.10;49.10;;;;;;5042400;28;19954;-57
2023/07/05 10:49:59;;;;;;;;;;;22.10;49.00;;;;;;5042251;28;19982;-55
2023/07/05 10:52:26;;;;;;;;;;;22.20;49.00;;;;;;5039347;28;19966;-55
2023/07/05 10:54:57;;;;;;;;;;;22.20;48.80;;;;;;5042677;28;19927;-56
2023/07/05 10:57:27;;;;;;;;;;;22.20;48.70;;;;;;5040123;28;20028;-57
2023/07/05 10:59:56;;;;;;;;;;;22.20;48.70;;;;;;5037661;28;19920;-56
2023/07/05 11:02:29;;;;;;;;;;;22.10;49.00;;;;;;5055778;28;19962;-57
2023/07/05 11:04:56;;;;;;;;;;;22.20;48.60;;;;;;5039351;28;19955;-56
2023/07/05 11:07:23;;;;;;;;;;;22.20;48.50;;;;;;5056876;28;19967;-56
2023/07/05 11:09:49;;;;;;;;;;;22.20;48.30;;;;;;5035044;28;19927;-55
2023/07/05 11:12:17;;;;;;;;;;;22.20;48.20;;;;;;5041691;28;19925;-57
2023/07/05 11:14:45;;;;;;;;;;;22.10;48.10;;;;;;5061137;28;19925;-54
2023/07/05 11:17:17;;;;;;;;;;;22.10;48.00;;;;;;5019176;28;19927;-58
2023/07/05 11:19:44;;;;;;;;;;;22.20;48.30;;;;;;5033229;28;19920;-53
2023/07/05 11:22:17;;;;;;;;;;;22.20;48.40;;;;;;5049061;28;19931;-55
2023/07/05 11:24:45;;;;;;;;;;;22.10;48.40;;;;;;5034662;28;19949;-55
2023/07/05 11:27:30;;;;;;;;;;;22.20;48.30;;;;;;5038898;28;19982;-54
2023/07/05 11:29:59;;;;;;;;;;;22.10;47.90;;;;;;5038453;28;19921;-54
2023/07/05 11:32:27;;;;;;;;;;;22.20;47.70;;;;;;5032759;28;20014;-50
2023/07/05 11:34:54;;;;;;;;;;;22.20;47.60;;;;;;5039458;28;19921;-56
2023/07/05 11:37:48;;;;;;;;;;;22.20;47.60;;;;;;5035205;28;19924;-55
2023/07/05 11:40:34;;;;;;;;;;;22.20;47.70;;;;;;5020291;28;20231;-55
2023/07/05 11:43:16;;;;;;;;;;;22.20;47.90;;;;;;5036256;28;19925;-54
2023/07/05 11:45:47;;;;;;;;;;;22.20;48.00;;;;;;5035735;28;20374;-55
2023/07/05 11:48:29;;;;;;;;;;;22.20;48.10;;;;;;5034212;28;19921;-54
2023/07/05 11:50:55;;;;;;;;;;;22.20;48.10;;;;;;5050546;28;20325;-56
2023/07/05 11:53:23;;;;;;;;;;;22.20;48.20;;;;;;5034131;28;19921;-53
2023/07/05 11:55:50;;;;;;;;;;;22.10;48.20;;;;;;5050308;28;20305;-52
2023/07/05 11:58:18;;;;;;;;;;;22.20;48.30;;;;;;5052267;28;19927;-55
2023/07/05 12:00:48;;;;;;;;;;;22.20;48.40;;;;;;5036173;28;19935;-56
2023/07/05 12:03:17;;;;;;;;;;;22.20;48.40;;;;;;5015828;28;20379;-56
2023/07/05 12:05:44;;;;;;;;;;;22.20;48.50;;;;;;5032501;28;19970;-58
2023/07/05 12:08:12;;;;;;;;;;;22.20;49.10;;;;;;5056921;28;19932;-59
2023/07/05 12:10:39;;;;;;;;;;;22.20;48.60;;;;;;5036022;28;20130;-56
2023/07/05 12:13:07;;;;;;;;;;;22.20;48.60;;;;;;5031681;28;19921;-57
2023/07/05 12:15:35;;;;;;;;;;;22.20;48.70;;;;;;5045228;28;19952;-57
2023/07/05 12:18:03;;;;;;;;;;;22.30;48.80;;;;;;5038124;28;19951;-57
2023/07/05 12:20:30;;;;;;;;;;;22.30;48.80;;;;;;5039056;28;20333;-56
2023/07/05 12:22:57;;;;;;;;;;;22.30;48.80;;;;;;5051793;28;19928;-56
2023/07/05 12:25:25;;;;;;;;;;;22.30;48.80;;;;;;5034864;28;19971;-55
2023/07/05 12:27:52;;;;;;;;;;;22.30;48.80;;;;;;5053359;28;19928;-56
2023/07/05 12:30:20;;;;;;;;;;;22.30;48.80;;;;;;5043227;28;19927;-56
2023/07/05 12:32:50;;;;;;;;;;;22.30;48.80;;;;;;5035147;28;19996;-57
2023/07/05 12:35:20;;;;;;;;;;;22.30;48.90;;;;;;5048741;28;19927;-57
2023/07/05 12:37:47;;;;;;;;;;;22.30;48.90;;;;;;5030862;28;20046;-57
2023/07/05 12:40:19;;;;;;;;;;;22.40;49.00;;;;;;5034551;28;20304;-57
2023/07/05 12:42:46;;;;;;;;;;;22.40;49.00;;;;;;5029401;28;19933;-56
2023/07/05 12:45:15;;;;;;;;;;;22.40;49.00;;;;;;5033432;28;19921;-55
2023/07/05 12:47:41;;;;;;;;;;;22.40;49.00;;;;;;5036360;28;19925;-56
2023/07/05 12:50:09;;;;;;;;;;;22.40;49.00;;;;;;5033631;28;19929;-55
2023/07/05 12:52:38;;;;;;;;;;;22.40;49.00;;;;;;5033807;28;19986;-57
2023/07/05 12:55:05;;;;;;;;;;;22.40;49.00;;;;;;5036009;28;19921;-55
2023/07/05 12:57:33;;;;;;;;;;;22.40;49.00;;;;;;5031690;28;20414;-54
2023/07/05 13:00:00;;;;;;;;;;;22.40;49.00;;;;;;5056031;28;19928;-57
2023/07/05 13:02:28;;;;;;;;;;;22.40;49.00;;;;;;5033348;28;19983;-56
2023/07/05 13:04:55;;;;;;;;;;;22.40;49.00;;;;;;5031884;28;19928;-56
2023/07/05 13:07:22;;;;;;;;;;;22.40;48.90;;;;;;5036605;28;19932;-57
2023/07/05 13:09:52;;;;;;;;;;;22.40;49.00;;;;;;5049237;28;19964;-57
2023/07/05 13:12:19;;;;;;;;;;;22.40;49.00;;;;;;5043155;28;19920;-56
2023/07/05 13:14:54;;;;;;;;;;;22.40;49.00;;;;;;5036988;28;19967;-56
2023/07/05 13:17:24;;;;;;;;;;;22.40;48.90;;;;;;5018220;28;19935;-56
2023/07/05 13:19:58;;;;;;;;;;;22.40;49.00;;;;;;5036058;28;19925;-55
2023/07/05 13:22:27;;;;;;;;;;;22.40;49.00;;;;;;5034751;28;19921;-55
2023/07/05 13:24:55;;;;;;;;;;;22.40;49.00;;;;;;5049865;28;19972;-56
2023/07/05 13:27:23;;;;;;;;;;;22.50;49.00;;;;;;5036738;28;19928;-56
2023/07/05 13:29:50;;;;;;;;;;;22.40;49.00;;;;;;5037458;28;19925;-58
2023/07/05 13:32:24;;;;;;;;;;;22.50;49.00;;;;;;5040824;28;19927;-57
2023/07/05 13:34:50;;;;;;;;;;;22.50;49.00;;;;;;5036463;28;20024;-56
2023/07/05 13:37:19;;;;;;;;;;;22.40;49.00;;;;;;5034316;28;19924;-56
2023/07/05 13:39:45;;;;;;;;;;;22.50;49.10;;;;;;5036111;28;19933;-56
2023/07/05 13:42:16;;;;;;;;;;;22.50;49.00;;;;;;5035095;28;19924;-57
2023/07/05 13:44:44;;;;;;;;;;;22.50;49.10;;;;;;5051211;28;19955;-57
2023/07/05 13:47:11;;;;;;;;;;;22.50;49.00;;;;;;5059064;28;20013;-56
2023/07/05 13:49:37;;;;;;;;;;;22.50;49.10;;;;;;5033785;28;19921;-57
2023/07/05 13:52:04;;;;;;;;;;;22.50;49.10;;;;;;5033016;28;19928;-57
2023/07/05 13:54:31;;;;;;;;;;;22.50;49.10;;;;;;5032470;28;19928;-57
2023/07/05 13:56:58;;;;;;;;;;;22.50;49.10;;;;;;5038248;28;19921;-58
2023/07/05 13:59:26;;;;;;;;;;;22.50;49.10;;;;;;5033297;28;20272;-55
2023/07/05 14:01:53;;;;;;;;;;;22.50;49.10;;;;;;5047691;28;19924;-55
2023/07/05 14:04:19;;;;;;;;;;;22.50;49.10;;;;;;5050959;28;20133;-55
2023/07/05 14:06:46;;;;;;;;;;;22.50;49.00;;;;;;5052737;28;19959;-54
2023/07/05 14:09:13;;;;;;;;;;;22.50;49.10;;;;;;5038227;28;20126;-57
2023/07/05 14:11:41;;;;;;;;;;;22.50;49.10;;;;;;5034849;28;19928;-56
2023/07/05 14:14:07;;;;;;;;;;;22.50;49.00;;;;;;5033290;28;19924;-56
2023/07/05 14:16:35;;;;;;;;;;;22.50;49.10;;;;;;5056381;28;19920;-57
2023/07/05 14:19:03;;;;;;;;;;;22.60;49.20;;;;;;5053182;28;19974;-54
2023/07/05 14:21:30;;;;;;;;;;;22.60;49.10;;;;;;5050871;28;19931;-57